Time;durP1;ratioP1;P1;durP2;ratioP2;P2;SDS_P1;SDS_P2;PMS_P1;PMS_P2;Temp;Humidity;BMP_temperature;BMP_pressure;BME280_temperature;BME280_humidity;BME280_pressure;Samples;Min_cycle;Max_cycle;Signal;HPM_P1;HPM_P2
2023/02/21 02:15:50;;;;;;;4.18;1.98;;;;;;;17.23;56.75;102019.38;6280994;22;20409;-85
2023/02/21 02:18:21;;;;;;;5.05;1.83;;;;;;;17.24;56.71;102018.50;6253174;22;20014;-86
2023/02/21 02:20:46;;;;;;;3.88;1.98;;;;;;;17.22;56.75;102012.44;6252862;22;20029;-84
2023/02/21 02:23:21;;;;;;;4.43;1.90;;;;;;;17.25;56.75;102015.06;6252701;22;20012;-83
2023/02/21 02:25:52;;;;;;;4.25;1.92;;;;;;;17.24;56.84;102013.31;6280159;22;20004;-81
2023/02/21 02:28:38;;;;;;;4.82;2.17;;;;;;;17.23;56.60;102008.97;6252898;22;20014;-86
2023/02/21 02:31:31;;;;;;;6.07;2.05;;;;;;;17.22;56.36;102006.34;6252724;22;20008;-84
2023/02/21 02:34:15;;;;;;;3.23;1.97;;;;;;;17.23;56.58;102014.19;6252487;22;20007;-83
2023/02/21 02:36:52;;;;;;;3.58;1.90;;;;;;;17.22;56.59;102011.56;6252685;22;20004;-82
2023/02/21 02:39:29;;;;;;;4.07;2.10;;;;;;;17.22;56.68;102014.16;6252683;22;20011;-83
2023/02/21 02:42:04;;;;;;;3.47;1.98;;;;;;;17.23;56.67;102013.31;6253353;22;20006;-82
2023/02/21 02:44:56;;;;;;;4.43;2.45;;;;;;;17.23;56.37;102008.13;6252581;22;20007;-84
2023/02/21 02:47:27;;;;;;;4.63;2.42;;;;;;;17.22;56.70;102006.34;6252551;22;20053;-83
2023/02/21 02:49:54;;;;;;;4.35;2.20;;;;;;;17.21;56.83;102007.22;6252407;22;20015;-85
2023/02/21 02:52:20;;;;;;;3.67;2.03;;;;;;;17.23;56.57;102006.38;6227420;22;20054;-82
2023/02/21 02:55:00;;;;;;;3.55;1.92;;;;;;;17.22;56.67;102014.16;6226914;22;20016;-84
2023/02/21 02:57:29;;;;;;;3.63;1.90;;;;;;;17.21;56.53;102010.69;6252405;22;20348;-82
2023/02/21 02:59:55;;;;;;;4.03;2.10;;;;;;;17.22;56.61;102016.75;6279735;22;20007;-82
2023/02/21 03:02:20;;;;;;;3.88;2.15;;;;;;;17.21;56.72;102017.63;6227074;22;20014;-84
2023/02/21 03:04:49;;;;;;;4.40;2.20;;;;;;;17.21;56.60;102015.88;6252187;22;20010;-85
2023/02/21 03:07:39;;;;;;;5.18;2.17;;;;;;;17.21;56.71;102015.88;6279319;22;20031;-84
2023/02/21 03:10:37;;;;;;;4.78;1.90;;;;;;;17.21;56.51;102017.63;6252730;22;20007;-83
2023/02/21 03:13:11;;;;;;;4.93;2.17;;;;;;;17.20;56.58;102008.97;6252333;22;20332;-82
2023/02/21 03:15:48;;;;;;;4.25;2.25;;;;;;;17.21;56.50;102017.63;6252370;22;20007;-85
2023/02/21 03:18:34;;;;;;;3.20;1.88;;;;;;;17.19;56.58;102011.53;6252456;22;20098;-83
2023/02/21 03:21:03;;;;;;;3.38;1.88;;;;;;;17.21;56.31;102021.09;6252388;22;20026;-82
2023/02/21 03:23:32;;;;;;;4.78;2.20;;;;;;;17.19;56.41;102008.94;6252522;22;20003;-83
2023/02/21 03:26:03;;;;;;;4.95;2.17;;;;;;;17.19;56.55;102007.19;6252154;22;20004;-83
2023/02/21 03:28:30;;;;;;;3.28;1.92;;;;;;;17.20;56.35;101997.66;6252484;22;20407;-82
2023/02/21 03:30:59;;;;;;;2.95;1.90;;;;;;;17.19;56.69;101995.94;6251911;22;20424;-86
2023/02/21 03:33:24;;;;;;;3.42;2.00;;;;;;;17.19;56.57;102002.00;6252469;22;19996;-86
2023/02/21 03:35:51;;;;;;;3.92;2.10;;;;;;;17.19;56.70;101994.19;6231502;22;20011;-86
2023/02/21 03:38:16;;;;;;;6.93;2.33;;;;;;;17.20;56.55;101987.25;6242267;22;20034;-85
2023/02/21 03:40:42;;;;;;;3.83;1.90;;;;;;;17.18;56.46;101982.06;6293238;22;20011;-85
2023/02/21 03:43:07;;;;;;;4.63;1.95;;;;;;;17.18;56.81;101978.56;6241312;22;20008;-86
2023/02/21 03:45:34;;;;;;;3.67;1.73;;;;;;;17.19;56.42;101986.38;6240146;22;20010;-86
2023/02/21 03:47:59;;;;;;;4.40;1.92;;;;;;;17.19;56.36;101983.78;6287663;22;20061;-86
2023/02/21 03:50:25;;;;;;;2.78;1.77;;;;;;;17.20;56.48;101982.03;6202377;22;20004;-83
2023/02/21 03:52:50;;;;;;;4.38;2.00;;;;;;;17.17;56.70;101982.88;6227654;22;20434;-86
2023/02/21 03:55:16;;;;;;;3.13;1.90;;;;;;;17.18;56.54;101989.84;6227186;22;20019;-85
2023/02/21 03:57:42;;;;;;;3.30;2.08;;;;;;;17.18;56.70;101986.34;6252407;22;20015;-86
2023/02/21 04:00:08;;;;;;;3.88;2.00;;;;;;;17.19;56.58;101982.91;6227310;22;20103;-86
2023/02/21 04:02:33;;;;;;;3.55;2.33;;;;;;;17.17;56.56;101967.28;6202020;22;20008;-86
2023/02/21 04:04:59;;;;;;;3.80;1.95;;;;;;;17.17;56.61;101982.88;6252017;22;20057;-85
2023/02/21 04:07:25;;;;;;;3.85;1.98;;;;;;;17.17;56.56;101985.50;6227073;22;20033;-86
2023/02/21 04:09:50;;;;;;;4.13;2.00;;;;;;;17.17;56.54;101982.88;6226825;22;20386;-85
2023/02/21 04:12:16;;;;;;;3.85;1.88;;;;;;;17.17;56.47;101984.63;6226472;22;20008;-86
2023/02/21 04:14:41;;;;;;;3.85;2.00;;;;;;;17.17;56.75;101985.50;6251760;22;20008;-86
2023/02/21 04:17:06;;;;;;;5.75;2.10;;;;;;;17.16;56.56;101983.75;6226619;22;20031;-86
2023/02/21 04:19:32;;;;;;;3.70;1.90;;;;;;;17.16;56.73;101980.25;6201531;22;20007;-86
2023/02/21 04:21:57;;;;;;;4.05;2.05;;;;;;;17.17;56.48;101988.09;6279044;22;19999;-86
2023/02/21 04:24:23;;;;;;;4.00;2.22;;;;;;;17.18;56.53;101986.34;6226612;22;20412;-84
2023/02/21 04:26:48;;;;;;;3.67;2.00;;;;;;;17.17;56.57;101992.44;6226687;22;20031;-87
2023/02/21 04:29:13;;;;;;;5.28;2.20;;;;;;;17.16;56.47;101988.97;6226113;22;20018;-86
2023/02/21 04:31:39;;;;;;;2.58;1.75;;;;;;;17.15;56.38;101989.81;6252392;22;20004;-83
2023/02/21 04:34:05;;;;;;;5.88;2.15;;;;;;;17.15;56.48;101994.16;6251930;22;20336;-84
2023/02/21 04:36:30;;;;;;;3.55;2.00;;;;;;;17.15;56.83;101995.00;6226274;22;20429;-85
2023/02/21 04:38:56;;;;;;;3.67;2.10;;;;;;;17.16;56.65;101993.28;6226263;22;20435;-84
2023/02/21 04:41:21;;;;;;;3.35;2.20;;;;;;;17.15;56.30;101988.94;6226382;22;20004;-82
2023/02/21 04:43:47;;;;;;;5.85;2.33;;;;;;;17.17;56.06;101997.63;6226394;22;20086;-84
2023/02/21 04:46:15;;;;;;;3.33;2.10;;;;;;;17.15;56.50;101997.59;6226428;22;20309;-82
2023/02/21 04:48:45;;;;;;;4.15;2.28;;;;;;;17.15;56.43;102013.22;6251729;22;20007;-86
2023/02/21 04:51:15;;;;;;;3.55;2.13;;;;;;;17.15;56.56;102009.75;6251087;22;20004;-84
2023/02/21 04:53:41;;;;;;;4.47;1.90;;;;;;;17.13;56.57;101999.31;6278420;22;20078;-81
2023/02/21 04:56:07;;;;;;;3.88;2.08;;;;;;;17.14;56.52;101995.00;6225881;22;20096;-82
2023/02/21 04:58:32;;;;;;;3.30;2.00;;;;;;;17.13;56.30;101983.72;6226073;22;20078;-82
2023/02/21 05:00:58;;;;;;;4.97;2.00;;;;;;;17.14;56.36;101987.22;6226151;22;19995;-83
2023/02/21 05:03:23;;;;;;;3.53;2.13;;;;;;;17.13;56.40;101982.84;6226011;22;20014;-81
2023/02/21 05:05:50;;;;;;;4.43;2.10;;;;;;;17.13;56.20;101993.25;6225938;22;20011;-82
2023/02/21 05:08:15;;;;;;;3.47;1.85;;;;;;;17.14;56.72;101998.47;6251088;22;20000;-82
2023/02/21 05:10:45;;;;;;;3.58;1.92;;;;;;;17.14;56.67;102003.69;6251423;22;20000;-81
2023/02/21 05:13:11;;;;;;;3.08;1.80;;;;;;;17.14;56.46;101992.41;6251408;22;20082;-83
2023/02/21 05:15:36;;;;;;;2.95;1.70;;;;;;;17.16;56.52;101993.28;6201222;22;20058;-82
2023/02/21 05:18:01;;;;;;;2.53;1.67;;;;;;;17.16;56.38;101985.47;6200698;22;20014;-84
2023/02/21 05:20:27;;;;;;;3.50;2.10;;;;;;;17.16;56.55;101988.06;6276646;22;20028;-84
2023/02/21 05:22:53;;;;;;;3.78;1.83;;;;;;;17.17;56.46;101995.03;6201154;22;20091;-85
2023/02/21 05:25:21;;;;;;;2.65;1.58;;;;;;;17.16;56.49;101986.38;6225540;22;20007;-82
2023/02/21 05:27:48;;;;;;;3.30;1.70;;;;;;;17.17;56.54;101987.22;6278307;22;19999;-83
2023/02/21 05:30:16;;;;;;;4.18;2.10;;;;;;;17.18;56.50;101996.75;6251161;22;20010;-82
2023/02/21 05:32:42;;;;;;;3.25;2.00;;;;;;;17.18;56.48;101996.75;6250833;22;19996;-84
2023/02/21 05:35:09;;;;;;;3.20;2.10;;;;;;;17.19;56.37;101993.31;6251128;22;20007;-85
2023/02/21 05:37:34;;;;;;;2.97;1.80;;;;;;;17.20;56.40;101990.75;6250730;22;20012;-81
2023/02/21 05:40:00;;;;;;;2.50;1.70;;;;;;;17.19;56.49;101990.72;6250365;22;20380;-80
2023/02/21 05:42:26;;;;;;;6.18;2.08;;;;;;;17.21;56.53;101986.41;6250393;22;19995;-84
2023/02/21 05:44:51;;;;;;;6.60;2.22;;;;;;;17.21;56.68;101989.00;6225712;22;20068;-82
2023/02/21 05:47:16;;;;;;;6.20;2.10;;;;;;;17.22;56.31;101990.75;6200778;22;20428;-82
2023/02/21 05:49:42;;;;;;;4.43;1.90;;;;;;;17.24;56.61;101999.44;6225274;22;20004;-85
2023/02/21 05:52:11;;;;;;;4.47;2.28;;;;;;;17.25;56.77;101998.59;6200726;22;20134;-83
2023/02/21 05:54:37;;;;;;;9.88;2.20;;;;;;;17.24;56.88;101999.44;6277381;22;20010;-80
2023/02/21 05:57:03;;;;;;;3.88;2.17;;;;;;;17.24;56.70;101997.69;6250287;22;20012;-81
2023/02/21 05:59:28;;;;;;;5.30;2.10;;;;;;;17.25;56.47;101990.78;6225555;22;20011;-86
2023/02/21 06:01:55;;;;;;;4.55;1.98;;;;;;;17.24;56.80;101995.09;6251101;22;20019;-83
2023/02/21 06:04:20;;;;;;;3.20;2.08;;;;;;;17.25;56.50;102001.19;6225762;22;20007;-79
2023/02/21 06:06:46;;;;;;;4.80;2.17;;;;;;;17.26;56.41;101995.13;6225430;22;20134;-87
2023/02/21 06:09:11;;;;;;;4.65;1.90;;;;;;;17.26;56.71;101995.97;6226230;22;20008;-82
2023/02/21 06:11:39;;;;;;;6.82;2.03;;;;;;;17.26;56.70;101995.97;6226479;22;20016;-84
2023/02/21 06:14:07;;;;;;;3.65;1.77;;;;;;;17.27;56.66;101994.28;6232160;22;20007;-83
2023/02/21 06:16:34;;;;;;;3.88;2.05;;;;;;;17.27;56.60;101995.16;6257125;22;20082;-84
2023/02/21 06:19:01;;;;;;;2.65;1.77;;;;;;;17.26;56.78;101997.72;6236831;22;20007;-85
2023/02/21 06:21:26;;;;;;;6.47;2.00;;;;;;;17.26;56.74;101997.72;6259537;22;19999;-85
2023/02/21 06:23:51;;;;;;;2.72;1.83;;;;;;;17.27;56.53;101994.28;6256272;22;20478;-86
2023/02/21 06:26:18;;;;;;;4.70;1.95;;;;;;;17.27;56.29;102005.56;6228753;22;20015;-86
2023/02/21 06:28:44;;;;;;;5.05;2.03;;;;;;;17.27;56.72;102002.94;6252256;22;20088;-84
2023/02/21 06:31:09;;;;;;;3.83;2.00;;;;;;;17.28;56.70;102003.81;6251567;22;20004;-85
2023/02/21 06:33:35;;;;;;;2.70;1.90;;;;;;;17.28;56.57;101999.47;6226123;22;20011;-83
2023/02/21 06:36:06;;;;;;;3.97;1.80;;;;;;;17.29;56.70;102008.19;6251262;22;20010;-84
2023/02/21 06:38:32;;;;;;;4.57;1.80;;;;;;;17.29;56.88;102002.97;6251791;22;20083;-81
2023/02/21 06:40:57;;;;;;;2.58;1.70;;;;;;;17.28;56.85;101996.88;6201566;22;20004;-83
2023/02/21 06:43:23;;;;;;;2.88;1.90;;;;;;;17.30;56.66;101996.91;6201337;22;20057;-84
2023/02/21 06:45:48;;;;;;;3.15;1.88;;;;;;;17.28;56.79;101996.88;6251116;22;20004;-86
2023/02/21 06:48:15;;;;;;;3.72;1.80;;;;;;;17.30;57.00;102002.09;6227005;22;20000;-86
2023/02/21 06:50:41;;;;;;;3.72;1.95;;;;;;;17.31;56.90;102013.38;6251698;22;20332;-86
2023/02/21 06:53:06;;;;;;;6.95;3.38;;;;;;;17.32;57.05;102016.00;6253290;22;20004;-85
2023/02/21 06:55:32;;;;;;;9.80;3.70;;;;;;;17.31;56.86;102013.38;6253144;22;20007;-86
2023/02/21 06:57:58;;;;;;;8.88;3.05;;;;;;;17.32;57.00;102012.53;6202356;22;20047;-86
2023/02/21 07:00:25;;;;;;;8.93;3.42;;;;;;;17.31;56.83;102010.78;6227272;22;20015;-84
2023/02/21 07:02:54;;;;;;;5.65;3.17;;;;;;;17.32;56.82;102013.41;6228750;22;20328;-86
2023/02/21 07:05:19;;;;;;;6.68;3.30;;;;;;;17.33;56.95;102014.28;6227593;22;20117;-85
2023/02/21 07:07:45;;;;;;;8.35;3.00;;;;;;;17.32;56.89;102012.53;6252899;22;20004;-82
2023/02/21 07:10:19;;;;;;;6.15;2.95;;;;;;;17.32;57.14;102010.81;6227790;22;20010;-85
2023/02/21 07:12:44;;;;;;;5.95;3.00;;;;;;;17.33;56.79;102009.94;6228958;22;20003;-85
2023/02/21 07:15:10;;;;;;;7.35;3.60;;;;;;;17.33;56.83;102012.53;6252645;22;20011;-84
2023/02/21 07:17:35;;;;;;;7.60;2.83;;;;;;;17.34;56.83;102010.81;6202156;22;20003;-84
2023/02/21 07:20:01;;;;;;;6.28;2.75;;;;;;;17.34;56.95;102016.03;6202219;22;20017;-84
2023/02/21 07:22:27;;;;;;;5.18;2.70;;;;;;;17.33;56.85;102009.94;6227151;22;20011;-86
2023/02/21 07:24:52;;;;;;;9.00;3.40;;;;;;;17.33;56.88;102015.13;6252612;22;20078;-85
2023/02/21 07:27:18;;;;;;;4.55;2.72;;;;;;;17.35;56.89;102012.56;6227017;22;20027;-84
2023/02/21 07:29:48;;;;;;;9.02;2.92;;;;;;;17.34;56.91;102011.69;6202031;22;20331;-85
2023/02/21 07:32:14;;;;;;;6.05;2.50;;;;;;;17.35;56.89;102013.41;6227170;22;20326;-85
2023/02/21 07:34:40;;;;;;;4.22;2.42;;;;;;;17.35;56.59;102016.03;6227143;22;20485;-84
2023/02/21 07:37:05;;;;;;;5.80;2.72;;;;;;;17.35;56.66;102013.41;6252775;22;20090;-83
2023/02/21 07:39:31;;;;;;;4.18;2.47;;;;;;;17.36;56.79;102023.00;6227124;22;20444;-87
2023/02/21 07:41:56;;;;;;;5.88;2.88;;;;;;;17.36;56.63;102017.78;6252531;22;20000;-82
2023/02/21 07:44:24;;;;;;;3.85;2.60;;;;;;;17.36;56.78;102015.19;6226788;22;20205;-85
2023/02/21 07:46:50;;;;;;;4.97;2.42;;;;;;;17.36;56.60;102012.56;6227743;22;20007;-85
2023/02/21 07:49:16;;;;;;;4.20;2.70;;;;;;;17.36;56.63;102012.56;6227037;22;20018;-82
2023/02/21 07:51:44;;;;;;;4.45;2.10;;;;;;;17.37;56.44;102013.44;6252221;22;20007;-82
2023/02/21 07:54:09;;;;;;;3.53;2.00;;;;;;;17.37;56.36;102016.03;6252069;22;20008;-83
2023/02/21 07:56:34;;;;;;;6.53;2.65;;;;;;;17.38;56.76;102017.81;6201774;22;20397;-83
2023/02/21 07:59:00;;;;;;;3.55;2.28;;;;;;;17.38;56.50;102017.81;6252137;22;20008;-85
2023/02/21 08:01:26;;;;;;;5.18;2.30;;;;;;;17.39;56.64;102010.00;6201578;22;20007;-85
2023/02/21 08:03:52;;;;;;;5.22;2.30;;;;;;;17.39;56.53;102023.00;6252097;22;20008;-85
2023/02/21 08:06:17;;;;;;;5.10;2.30;;;;;;;17.40;56.52;102021.31;6226681;22;20417;-82
2023/02/21 08:08:44;;;;;;;3.45;1.92;;;;;;;17.40;56.45;102022.16;6226572;22;20013;-84
2023/02/21 08:11:09;;;;;;;4.20;2.17;;;;;;;17.40;56.51;102022.16;6252314;22;20424;-83
2023/02/21 08:13:35;;;;;;;3.63;1.90;;;;;;;17.41;56.40;102029.09;6229534;22;20008;-86
2023/02/21 08:16:00;;;;;;;3.85;2.22;;;;;;;17.41;56.34;102023.91;6252078;22;20328;-84
2023/02/21 08:18:26;;;;;;;4.00;2.30;;;;;;;17.42;56.32;102027.38;6251977;22;20031;-85
2023/02/21 08:20:58;;;;;;;4.15;2.25;;;;;;;17.43;56.55;102026.53;6227058;22;20134;-84
2023/02/21 08:23:23;;;;;;;4.47;1.90;;;;;;;17.43;56.38;102023.91;6251735;22;20140;-83
2023/02/21 08:25:49;;;;;;;4.82;2.55;;;;;;;17.44;56.40;102026.53;6251679;22;20023;-83
2023/02/21 08:28:15;;;;;;;3.40;1.70;;;;;;;17.45;56.31;102022.22;6226159;22;20011;-86
2023/02/21 08:30:40;;;;;;;3.72;1.90;;;;;;;17.45;56.23;102025.69;6201398;22;20003;-82
2023/02/21 08:33:06;;;;;;;4.05;2.20;;;;;;;17.45;56.23;102028.28;6226397;22;20007;-82
2023/02/21 08:35:32;;;;;;;2.70;1.85;;;;;;;17.46;56.12;102022.22;6251529;22;20090;-84
2023/02/21 08:38:01;;;;;;;3.15;1.70;;;;;;;17.49;56.29;102024.00;6201283;22;20066;-85
2023/02/21 08:40:29;;;;;;;3.20;1.88;;;;;;;17.48;56.18;102017.03;6227206;22;20019;-85
2023/02/21 08:42:56;;;;;;;3.40;2.00;;;;;;;17.48;56.35;102020.53;6251544;22;20010;-83
2023/02/21 08:45:23;;;;;;;2.97;1.90;;;;;;;17.49;56.26;102013.56;6226231;22;20004;-84
2023/02/21 08:47:50;;;;;;;2.75;1.83;;;;;;;17.49;56.15;102016.19;6251260;22;19999;-83
2023/02/21 08:50:16;;;;;;;2.28;1.50;;;;;;;17.51;56.03;102013.56;6278529;22;20018;-85
2023/02/21 08:52:41;;;;;;;2.63;1.63;;;;;;;17.51;56.05;102014.47;6279467;22;20386;-82
2023/02/21 08:55:07;;;;;;;2.55;1.83;;;;;;;17.51;56.02;102017.06;6258388;22;20023;-84
2023/02/21 08:57:33;;;;;;;2.40;1.50;;;;;;;17.52;56.01;102016.19;6239432;22;20420;-86
2023/02/21 08:59:59;;;;;;;3.08;2.05;;;;;;;17.54;56.09;102016.22;6213663;22;20007;-85
2023/02/21 09:02:25;;;;;;;3.38;1.83;;;;;;;17.54;55.85;102013.63;6235747;22;20006;-86
2023/02/21 09:04:51;;;;;;;2.90;1.70;;;;;;;17.55;56.06;102023.16;6229499;22;20008;-86
2023/02/21 09:07:19;;;;;;;3.03;1.70;;;;;;;17.55;56.14;102023.16;6253110;22;20004;-86
2023/02/21 09:09:45;;;;;;;2.42;1.77;;;;;;;17.55;55.84;102017.94;6253543;22;20000;-85
2023/02/21 09:12:11;;;;;;;2.95;1.70;;;;;;;17.56;55.79;102012.78;6252836;22;20062;-86
2023/02/21 09:14:39;;;;;;;2.55;1.73;;;;;;;17.56;55.85;102015.38;6227370;22;20012;-85
2023/02/21 09:17:06;;;;;;;2.53;1.60;;;;;;;17.57;55.90;102011.03;6252446;22;20053;-86
2023/02/21 09:19:32;;;;;;;2.50;1.40;;;;;;;17.56;55.59;102012.78;6227697;22;20007;-84
2023/02/21 09:21:58;;;;;;;2.08;1.45;;;;;;;17.57;56.08;102009.31;6227186;22;20006;-85
2023/02/21 09:24:25;;;;;;;2.25;1.48;;;;;;;17.57;55.94;102009.31;6253139;22;20007;-85
2023/02/21 09:26:57;;;;;;;2.28;1.50;;;;;;;17.57;55.97;102005.81;6201419;22;20003;-85
2023/02/21 09:29:24;;;;;;;2.20;1.20;;;;;;;17.58;55.80;102005.84;6251493;22;20008;-84
2023/02/21 09:31:50;;;;;;;3.03;1.40;;;;;;;17.58;55.86;102000.63;6251536;22;20007;-86
2023/02/21 09:34:15;;;;;;;2.50;1.63;;;;;;;17.58;55.83;101997.19;6251693;22;19999;-83
2023/02/21 09:36:42;;;;;;;2.00;1.40;;;;;;;17.60;55.72;101992.84;6251919;22;20004;-85
2023/02/21 09:39:08;;;;;;;2.97;1.50;;;;;;;17.60;55.84;101990.25;6227392;22;20014;-86
2023/02/21 09:41:34;;;;;;;3.33;1.40;;;;;;;17.59;55.92;101989.34;6252736;22;20011;-85
2023/02/21 09:44:01;;;;;;;2.17;1.33;;;;;;;17.60;55.83;101980.72;6251890;22;20038;-86
2023/02/21 09:46:31;;;;;;;1.75;1.20;;;;;;;17.61;55.79;101987.63;6251571;22;20004;-87
2023/02/21 09:48:57;;;;;;;2.05;1.30;;;;;;;17.61;55.80;101981.56;6251975;22;20447;-84
2023/02/21 09:51:24;;;;;;;2.08;1.30;;;;;;;17.61;55.71;101982.44;6226033;22;20008;-86
2023/02/21 09:53:53;;;;;;;1.50;1.20;;;;;;;17.62;55.86;101991.13;6201327;22;20008;-86
2023/02/21 09:56:38;;;;;;;1.67;1.25;;;;;;;17.62;55.71;101984.19;6251301;22;20047;-84
2023/02/21 09:59:10;;;;;;;1.50;1.17;;;;;;;17.62;55.74;101983.34;6251412;22;20004;-86
2023/02/21 10:02:08;;;;;;;3.15;1.30;;;;;;;17.64;55.81;101979.88;6251480;22;20416;-84
2023/02/21 10:04:56;;;;;;;1.60;1.00;;;;;;;17.65;55.74;101986.81;6251495;22;20401;-85
2023/02/21 10:07:30;;;;;;;2.13;1.35;;;;;;;17.66;55.66;101972.09;6278492;22;19995;-85
2023/02/21 10:10:22;;;;;;;2.00;1.00;;;;;;;17.67;55.72;101979.03;6251365;22;19999;-85
2023/02/21 10:13:19;;;;;;;2.00;1.10;;;;;;;17.68;55.75;101978.16;6250916;22;20007;-85
2023/02/21 10:16:06;;;;;;;1.58;1.08;;;;;;;17.67;55.65;101976.41;6251332;22;20003;-84
2023/02/21 10:18:39;;;;;;;1.58;1.15;;;;;;;17.68;55.50;101978.16;6251503;22;20003;-86
2023/02/21 10:21:11;;;;;;;;;;;;;;;17.69;55.49;101978.16;6278441;22;20015;-84
2023/02/21 10:23:42;;;;;;;2.08;1.25;;;;;;;17.68;55.64;101976.44;6250940;22;19907;-86
2023/02/21 10:26:15;;;;;;;1.95;1.10;;;;;;;17.68;55.58;101986.84;6250938;22;20030;-84
2023/02/21 10:28:40;;;;;;;1.60;1.17;;;;;;;17.68;55.39;101983.34;6252909;22;20033;-86
2023/02/21 10:31:31;;;;;;;2.22;1.02;;;;;;;17.68;55.49;101979.03;6227506;22;20012;-84
2023/02/21 10:33:58;;;;;;;1.65;1.30;;;;;;;17.67;55.48;101976.41;6253104;22;20000;-83
2023/02/21 10:36:25;;;;;;;1.50;1.20;;;;;;;17.68;55.56;101980.75;6253235;22;20011;-85
2023/02/21 10:38:58;;;;;;;2.25;1.10;;;;;;;17.69;55.65;101979.91;6228284;22;20142;-86
2023/02/21 10:41:27;;;;;;;2.63;1.20;;;;;;;17.67;55.35;101982.50;6280486;22;20049;-86
2023/02/21 10:44:00;;;;;;;2.45;1.30;;;;;;;17.67;55.39;101977.28;6253297;22;20034;-84
2023/02/21 10:46:38;;;;;;;1.90;1.13;;;;;;;17.67;55.13;101979.03;6253190;22;20004;-84
2023/02/21 10:49:20;;;;;;;2.28;1.17;;;;;;;17.67;55.26;101981.63;6252710;22;20007;-85
2023/02/21 10:51:45;;;;;;;2.33;1.35;;;;;;;17.68;55.25;101975.53;6252680;22;20004;-84
2023/02/21 10:54:22;;;;;;;2.13;1.20;;;;;;;17.68;55.50;101975.53;6202568;22;20083;-84
2023/02/21 10:56:51;;;;;;;2.30;1.45;;;;;;;17.68;55.33;101978.16;6252729;22;20016;-83
2023/02/21 10:59:29;;;;;;;1.95;1.38;;;;;;;17.68;55.34;101965.13;6253065;22;20485;-84
2023/02/21 11:01:56;;;;;;;2.28;1.20;;;;;;;17.68;55.15;101968.63;6252568;22;20327;-85
2023/02/21 11:04:28;;;;;;;1.80;1.20;;;;;;;17.67;55.42;101979.88;6252305;22;20003;-84
2023/02/21 11:07:07;;;;;;;1.80;1.13;;;;;;;17.67;55.26;101982.50;6252853;22;20420;-84
2023/02/21 11:09:43;;;;;;;2.30;1.25;;;;;;;17.67;55.28;101971.22;6252479;22;20000;-83
2023/02/21 11:12:14;;;;;;;2.25;1.20;;;;;;;17.67;55.25;101981.63;6252694;22;20335;-82
2023/02/21 11:14:41;;;;;;;2.08;1.20;;;;;;;17.65;55.34;101979.00;6252603;22;20035;-87
2023/02/21 11:17:09;;;;;;;2.25;1.27;;;;;;;17.66;55.29;101979.91;6252342;22;20003;-86
2023/02/21 11:19:47;;;;;;;1.52;1.15;;;;;;;17.66;55.16;101980.75;6252403;22;20042;-83
2023/02/21 11:22:13;;;;;;;2.05;1.40;;;;;;;17.66;55.21;101977.28;6279557;22;19995;-84
2023/02/21 11:24:45;;;;;;;1.60;1.20;;;;;;;17.66;55.25;101980.75;6253504;22;20006;-88
2023/02/21 11:27:11;;;;;;;1.70;1.20;;;;;;;17.65;55.29;101975.53;6253650;22;20027;-88
2023/02/21 11:29:42;;;;;;;1.83;1.02;;;;;;;17.66;54.89;101966.88;6253416;22;20004;-90
2023/02/21 11:32:19;;;;;;;1.48;1.30;;;;;;;17.66;55.16;101978.16;6255115;22;20007;-87
2023/02/21 11:34:47;;;;;;;2.28;1.25;;;;;;;17.64;55.04;101969.47;6268333;22;20011;-86
2023/02/21 11:37:13;;;;;;;1.45;0.90;;;;;;;17.65;55.44;101976.41;6243877;22;20004;-87
2023/02/21 11:39:40;;;;;;;1.67;0.95;;;;;;;17.66;55.10;101974.69;6269895;22;20030;-87
2023/02/21 11:42:30;;;;;;;1.45;0.90;;;;;;;17.65;55.31;101973.78;6240970;22;20004;-88
2023/02/21 11:45:14;;;;;;;1.25;0.98;;;;;;;17.65;55.03;101965.13;6259347;22;20012;-88
2023/02/21 11:47:50;;;;;;;1.40;1.10;;;;;;;17.67;54.80;101973.81;6257093;22;20003;-87
2023/02/21 11:50:33;;;;;;;1.42;0.88;;;;;;;17.67;54.84;101971.22;6281352;22;20436;-87
2023/02/21 11:53:13;;;;;;;1.75;1.10;;;;;;;17.66;54.97;101965.16;6254580;22;20049;-86
2023/02/21 11:55:41;;;;;;;1.60;1.10;;;;;;;17.67;55.19;101960.81;6254676;22;20006;-88
2023/02/21 11:58:26;;;;;;;1.80;1.20;;;;;;;17.67;54.95;101964.28;6254704;22;20110;-88
2023/02/21 12:01:05;;;;;;;2.03;1.35;;;;;;;17.68;55.37;101959.94;6253889;22;20425;-87
2023/02/21 12:03:58;;;;;;;1.50;1.30;;;;;;;17.67;55.14;101959.06;6254010;22;20004;-88
2023/02/21 12:06:35;;;;;;;2.55;1.40;;;;;;;17.67;55.26;101959.06;6253486;22;20069;-88
2023/02/21 12:09:09;;;;;;;1.90;1.30;;;;;;;17.68;54.92;101954.72;6253542;22;20010;-88
2023/02/21 12:11:56;;;;;;;2.22;1.40;;;;;;;17.68;55.08;101955.63;6253424;22;20004;-87
2023/02/21 12:15:18;;;;;;;1.58;1.20;;;;;;;17.67;55.15;101951.25;6253795;22;20007;-88
2023/02/21 12:18:14;;;;;;;1.83;1.10;;;;;;;17.68;54.95;101949.50;6162278;23;20048;-88
2023/02/21 12:21:15;;;;;;;2.05;1.25;;;;;;;17.67;55.17;101932.16;6162435;23;20046;-87
2023/02/21 12:24:06;;;;;;;1.75;1.33;;;;;;;17.67;54.89;101939.97;6206051;22;20095;-88
2023/02/21 12:26:40;;;;;;;1.80;1.40;;;;;;;17.68;54.88;101941.72;6254364;22;19999;-87
2023/02/21 12:29:30;;;;;;;2.00;1.45;;;;;;;17.68;54.92;101934.78;6253596;22;20008;-88
2023/02/21 12:32:02;;;;;;;2.17;1.50;;;;;;;17.69;55.10;101940.88;6253482;22;20011;-86
2023/02/21 12:34:27;;;;;;;2.40;1.50;;;;;;;17.69;54.96;101930.44;6253764;22;20008;-88
2023/02/21 12:37:15;;;;;;;1.95;1.45;;;;;;;17.69;54.90;101933.06;6252545;22;20012;-87
2023/02/21 12:40:19;;;;;;;1.83;1.50;;;;;;;17.71;54.88;101933.94;6253243;22;20026;-89
2023/02/21 12:43:03;;;;;;;1.55;1.20;;;;;;;17.71;54.99;101922.66;6241092;22;20053;-88
2023/02/21 12:46:08;;;;;;;1.67;1.40;;;;;;;17.71;55.08;101923.53;6253089;22;20004;-88
2023/02/21 12:48:50;;;;;;;1.65;1.23;;;;;;;17.71;54.84;101918.31;6252531;22;19996;-88
2023/02/21 12:51:19;;;;;;;1.60;1.10;;;;;;;17.72;55.13;101925.25;6252930;22;20011;-87
2023/02/21 12:54:08;;;;;;;2.50;1.52;;;;;;;17.71;54.85;101918.31;6251597;22;20022;-88
2023/02/21 12:56:59;;;;;;;3.10;1.23;;;;;;;17.72;54.98;101914.84;6253327;22;20012;-87
2023/02/21 12:59:29;;;;;;;1.58;1.33;;;;;;;17.72;54.96;101920.03;6253026;22;19999;-87
2023/02/21 13:02:00;;;;;;;1.65;1.33;;;;;;;17.71;54.99;101918.31;6252913;22;20003;-87
2023/02/21 13:04:56;;;;;;;1.75;1.20;;;;;;;17.72;54.96;101919.19;6252562;22;20384;-87
2023/02/21 13:07:31;;;;;;;1.85;1.30;;;;;;;17.70;55.00;101924.38;6252619;22;20007;-88
2023/02/21 13:10:00;;;;;;;2.08;1.40;;;;;;;17.71;54.82;101923.53;6253411;22;20015;-88
2023/02/21 13:12:44;;;;;;;1.85;1.20;;;;;;;17.69;55.02;101925.25;6252478;22;20008;-87
2023/02/21 13:15:15;;;;;;;2.05;1.30;;;;;;;17.68;55.02;101916.56;6252596;22;20000;-91
2023/02/21 13:17:43;;;;;;;1.50;1.40;;;;;;;17.68;54.69;101920.88;6253043;22;20355;-88
2023/02/21 13:20:16;;;;;;;1.70;1.40;;;;;;;17.68;54.80;101915.69;6227519;22;20094;-86
2023/02/21 13:23:19;;;;;;;1.73;1.35;;;;;;;17.67;54.87;101912.22;6252343;22;20031;-87
2023/02/21 13:26:00;;;;;;;2.13;1.40;;;;;;;17.67;54.99;101920.00;6252417;22;19999;-88
2023/02/21 13:28:37;;;;;;;1.90;1.48;;;;;;;17.67;54.88;101907.00;6252325;22;20365;-88
2023/02/21 13:31:16;;;;;;;3.20;1.42;;;;;;;17.66;54.69;101910.47;6228768;22;20094;-89
2023/02/21 13:33:55;;;;;;;1.77;1.30;;;;;;;17.66;54.77;101900.06;6252313;22;20004;-89
2023/02/21 13:36:30;;;;;;;1.52;1.25;;;;;;;17.65;54.88;101894.84;6252801;22;20010;-87
2023/02/21 13:39:07;;;;;;;1.88;1.40;;;;;;;17.65;54.93;101887.91;6252595;22;20007;-88
2023/02/21 13:41:48;;;;;;;2.08;1.50;;;;;;;17.64;54.96;101888.78;6253442;22;20451;-87
2023/02/21 13:44:33;;;;;;;1.90;1.38;;;;;;;17.64;54.68;101891.38;6253045;22;20053;-88
2023/02/21 13:47:12;;;;;;;1.80;1.30;;;;;;;17.65;54.78;101890.50;6252832;22;20010;-86
2023/02/21 13:49:49;;;;;;;2.20;1.60;;;;;;;17.63;54.70;101892.22;6252491;22;20019;-90
2023/02/21 13:52:25;;;;;;;1.73;1.30;;;;;;;17.64;54.73;101891.38;6252922;22;20010;-87
2023/02/21 13:55:18;;;;;;;2.13;1.45;;;;;;;17.65;54.88;101887.03;6253239;22;20027;-88
2023/02/21 13:57:58;;;;;;;2.30;1.37;;;;;;;17.62;54.84;101885.28;6252770;22;20122;-86